Time,TemperatureF,DewpointF,PressureIn,WindDirection,WindDirectionDegrees,WindSpeedMPH,WindSpeedGustMPH,Humidity,HourlyPrecipIn,Conditions,Clouds,dailyrainin,SolarRadiationWatts/m^2,SoftwareType,DateUTC
2013-07-31 00:02:00,65.2,45.0,30.00,South,182,0.0,0.0,48,0.00,,---,0.00,0.00,VWS V14.01,2013-07-31 07:02:00,
2013-07-31 00:07:00,65.2,45.0,30.00,SSW,204,1.0,3.0,48,0.00,,---,0.00,0.00,VWS V14.01,2013-07-31 07:07:00,
2013-07-31 00:12:00,65.1,44.9,30.00,SW,218,1.0,3.0,48,0.00,,---,0.00,0.00,VWS V14.01,2013-07-31 07:12:00,
2013-07-31 00:17:00,65.2,44.5,29.99,SW,236,0.0,3.0,47,0.00,,---,0.00,0.00,VWS V14.01,2013-07-31 07:17:00,
2013-07-31 00:22:00,65.3,44.6,30.00,SW,236,0.0,3.0,47,0.00,,---,0.00,0.00,VWS V14.01,2013-07-31 07:22:00,
2013-07-31 00:27:00,65.2,43.9,30.00,SW,236,0.0,3.0,46,0.00,,---,0.00,0.00,VWS V14.01,2013-07-31 07:27:00,
2013-07-31 00:32:00,65.0,44.3,30.00,SW,236,0.0,0.0,47,0.00,,---,0.00,0.00,VWS V14.01,2013-07-31 07:32:00,
2013-07-31 00:37:00,64.9,44.2,30.00,South,174,0.0,0.0,47,0.00,,---,0.00,0.00,VWS V14.01,2013-07-31 07:37:00,
2013-07-31 00:42:00,64.7,44.0,30.00,ENE,68,0.0,2.0,47,0.00,,---,0.00,0.00,VWS V14.01,2013-07-31 07:42:00,
2013-07-31 00:47:00,64.7,44.0,30.00,North,351,0.0,2.0,47,0.00,,---,0.00,0.00,VWS V14.01,2013-07-31 07:47:00,
2013-07-31 00:52:00,64.6,44.5,30.00,NNW,336,0.0,2.0,48,0.00,,---,0.00,0.00,VWS V14.01,2013-07-31 07:52:00,
2013-07-31 00:57:00,64.5,44.4,30.00,North,5,0.0,2.0,48,0.00,,---,0.00,0.00,VWS V14.01,2013-07-31 07:57:00,
2013-07-31 01:02:00,64.4,43.8,30.00,SSE,154,0.0,3.0,47,0.00,,---,0.00,0.00,VWS V14.01,2013-07-31 08:02:00,
2013-07-31 01:07:00,64.5,43.8,29.99,South,188,0.0,3.0,47,0.00,,---,0.00,0.00,VWS V14.01,2013-07-31 08:07:00,
2013-07-31 01:12:00,64.7,44.0,29.99,South,188,0.0,3.0,47,0.00,,---,0.00,0.00,VWS V14.01,2013-07-31 08:12:00,
2013-07-31 01:17:00,64.7,44.6,29.99,South,188,0.0,3.0,48,0.00,,---,0.00,0.00,VWS V14.01,2013-07-31 08:17:00,
2013-07-31 01:22:00,64.6,45.0,29.99,SSW,211,0.0,3.0,49,0.00,,---,0.00,0.00,VWS V14.01,2013-07-31 08:22:00,
2013-07-31 01:27:00,64.7,45.7,29.99,SSW,211,0.0,3.0,50,0.00,,---,0.00,0.00,VWS V14.01,2013-07-31 08:27:00,
2013-07-31 01:32:00,64.7,45.7,29.99,SSW,211,0.0,0.0,50,0.00,,---,0.00,0.00,VWS V14.01,2013-07-31 08:32:00,
2013-07-31 01:37:00,64.6,46.6,29.99,SSW,211,0.0,2.0,52,0.00,,---,0.00,0.00,VWS V14.01,2013-07-31 08:37:00,
2013-07-31 01:42:00,64.7,46.7,29.99,SSW,211,0.0,2.0,52,0.00,,---,0.00,0.00,VWS V14.01,2013-07-31 08:42:00,
2013-07-31 01:47:00,64.8,46.8,29.99,SSW,211,0.0,2.0,52,0.00,,---,0.00,0.00,VWS V14.01,2013-07-31 08:47:00,
2013-07-31 01:52:00,64.9,46.9,29.99,SSW,211,0.0,2.0,52,0.00,,---,0.00,0.00,VWS V14.01,2013-07-31 08:52:00,
2013-07-31 01:57:00,64.7,46.7,29.98,SSW,211,2.0,2.0,52,0.00,,---,0.00,0.00,VWS V14.01,2013-07-31 08:57:00,
2013-07-31 02:02:00,64.6,46.6,29.98,SSW,211,0.0,0.0,52,0.00,,---,0.00,0.00,VWS V14.01,2013-07-31 09:02:00,
2013-07-31 02:07:00,64.3,45.8,29.98,SSW,211,0.0,0.0,51,0.00,,---,0.00,0.00,VWS V14.01,2013-07-31 09:07:00,
2013-07-31 02:12:00,63.9,47.0,29.98,SSW,211,0.0,1.0,54,0.00,,---,0.00,0.00,VWS V14.01,2013-07-31 09:12:00,
2013-07-31 02:17:00,63.7,46.8,29.98,SSW,213,0.0,2.0,54,0.00,,---,0.00,0.00,VWS V14.01,2013-07-31 09:17:00,
2013-07-31 02:22:00,63.6,46.2,29.99,NE,39,0.0,3.0,53,0.00,,---,0.00,0.00,VWS V14.01,2013-07-31 09:22:00,
2013-07-31 02:27:00,63.3,45.9,29.98,NNW,345,0.0,3.0,53,0.00,,---,0.00,0.00,VWS V14.01,2013-07-31 09:27:00,
2013-07-31 02:32:00,63.0,46.1,29.98,West,280,0.0,0.0,54,0.00,,---,0.00,0.00,VWS V14.01,2013-07-31 09:32:00,
2013-07-31 02:37:00,62.9,46.0,29.98,NE,55,0.0,2.0,54,0.00,,---,0.00,0.00,VWS V14.01,2013-07-31 09:37:00,
2013-07-31 02:42:00,62.8,45.4,29.98,NE,55,0.0,2.0,53,0.00,,---,0.00,0.00,VWS V14.01,2013-07-31 09:42:00,
2013-07-31 02:47:00,62.6,45.2,29.98,NW,318,0.0,2.0,53,0.00,,---,0.00,0.00,VWS V14.01,2013-07-31 09:47:00,
2013-07-31 02:52:00,62.5,45.2,29.98,NW,318,0.0,2.0,53,0.00,,---,0.00,0.00,VWS V14.01,2013-07-31 09:52:00,
2013-07-31 02:57:00,62.4,45.5,29.98,NE,46,0.0,2.0,54,0.00,,---,0.00,0.00,VWS V14.01,2013-07-31 09:57:00,
2013-07-31 03:02:00,62.2,45.4,29.98,NNW,340,0.0,1.0,54,0.00,,---,0.00,0.00,VWS V14.01,2013-07-31 10:02:00,
2013-07-31 03:07:00,62.1,45.3,29.98,NNW,333,0.0,1.0,54,0.00,,---,0.00,0.00,VWS V14.01,2013-07-31 10:07:00,
2013-07-31 03:12:00,61.9,45.6,29.98,NNW,333,0.0,1.0,55,0.00,,---,0.00,0.00,VWS V14.01,2013-07-31 10:12:00,
2013-07-31 03:17:00,61.8,45.5,29.98,NNW,333,0.0,1.0,55,0.00,,---,0.00,0.00,VWS V14.01,2013-07-31 10:17:00,
2013-07-31 03:22:00,61.8,45.5,29.98,NW,315,1.0,2.0,55,0.00,,---,0.00,0.00,VWS V14.01,2013-07-31 10:22:00,
2013-07-31 03:27:00,61.7,45.4,29.98,NNW,327,0.0,2.0,55,0.00,,---,0.00,0.00,VWS V14.01,2013-07-31 10:27:00,
2013-07-31 03:32:00,61.7,45.4,29.98,NNW,327,0.0,1.0,55,0.00,,---,0.00,0.00,VWS V14.01,2013-07-31 10:32:00,
2013-07-31 03:37:00,61.9,45.6,29.98,SW,220,0.0,1.0,55,0.00,,---,0.00,0.00,VWS V14.01,2013-07-31 10:37:00,
2013-07-31 03:42:00,62.1,45.8,29.98,SW,220,0.0,1.0,55,0.00,,---,0.00,0.00,VWS V14.01,2013-07-31 10:42:00,
2013-07-31 03:47:00,62.2,45.4,29.98,SW,220,0.0,1.0,54,0.00,,---,0.00,0.00,VWS V14.01,2013-07-31 10:47:00,
2013-07-31 03:52:00,62.3,45.5,29.98,SW,220,0.0,1.0,54,0.00,,---,0.00,0.00,VWS V14.01,2013-07-31 10:52:00,
2013-07-31 03:57:00,62.3,45.5,29.98,SW,220,0.0,1.0,54,0.00,,---,0.00,0.00,VWS V14.01,2013-07-31 10:57:00,
2013-07-31 04:02:00,62.3,45.5,29.97,SW,220,0.0,0.0,54,0.00,,---,0.00,0.00,VWS V14.01,2013-07-31 11:02:00,
2013-07-31 04:07:00,62.2,45.4,29.97,SW,220,0.0,1.0,54,0.00,,---,0.00,0.00,VWS V14.01,2013-07-31 11:07:00,
2013-07-31 04:12:00,62.0,45.2,29.97,SW,236,0.0,2.0,54,0.00,,---,0.00,0.00,VWS V14.01,2013-07-31 11:12:00,
2013-07-31 04:17:00,62.0,44.7,29.97,SW,236,0.0,2.0,53,0.00,,---,0.00,0.00,VWS V14.01,2013-07-31 11:17:00,
2013-07-31 04:22:00,61.9,45.1,29.97,SW,236,0.0,2.0,54,0.00,,---,0.00,0.00,VWS V14.01,2013-07-31 11:22:00,
2013-07-31 04:27:00,61.9,45.1,29.97,SW,236,0.0,2.0,54,0.00,,---,0.00,0.00,VWS V14.01,2013-07-31 11:27:00,
2013-07-31 04:32:00,61.8,45.0,29.97,SW,236,0.0,0.0,54,0.00,,---,0.00,0.00,VWS V14.01,2013-07-31 11:32:00,
2013-07-31 04:37:00,61.8,45.0,29.97,SW,236,0.0,0.0,54,0.00,,---,0.00,0.00,VWS V14.01,2013-07-31 11:37:00,
2013-07-31 04:42:00,61.8,45.0,29.97,SW,236,0.0,0.0,54,0.00,,---,0.00,0.00,VWS V14.01,2013-07-31 11:42:00,
2013-07-31 04:47:00,61.7,44.9,29.97,SW,236,0.0,0.0,54,0.00,,---,0.00,0.00,VWS V14.01,2013-07-31 11:47:00,
2013-07-31 04:52:00,61.7,44.9,29.97,SW,236,0.0,0.0,54,0.00,,---,0.00,0.00,VWS V14.01,2013-07-31 11:52:00,
2013-07-31 04:57:00,61.7,44.9,29.97,WSW,240,0.0,0.0,54,0.00,,---,0.00,0.00,VWS V14.01,2013-07-31 11:57:00,
2013-07-31 05:02:00,61.7,44.9,29.97,West,267,0.0,0.0,54,0.00,,---,0.00,0.00,VWS V14.01,2013-07-31 12:02:00,
2013-07-31 05:07:00,61.6,44.8,29.97,West,267,0.0,1.0,54,0.00,,---,0.00,0.00,VWS V14.01,2013-07-31 12:07:00,
2013-07-31 05:12:00,61.5,45.2,29.98,NNE,30,0.0,1.0,55,0.00,,---,0.00,0.00,VWS V14.01,2013-07-31 12:12:00,
2013-07-31 05:17:00,61.3,45.5,29.97,NW,306,2.0,3.0,56,0.00,,---,0.00,0.00,VWS V14.01,2013-07-31 12:17:00,
2013-07-31 05:22:00,61.3,45.0,29.97,WNW,292,0.0,3.0,55,0.00,,---,0.00,0.00,VWS V14.01,2013-07-31 12:22:00,
2013-07-31 05:27:00,61.3,45.0,29.97,WNW,292,0.0,3.0,55,0.00,,---,0.00,0.00,VWS V14.01,2013-07-31 12:27:00,
2013-07-31 05:32:00,61.3,44.5,29.97,WNW,292,0.0,0.0,54,0.00,,---,0.00,0.00,VWS V14.01,2013-07-31 12:32:00,
2013-07-31 05:37:00,61.3,45.0,29.97,WNW,292,0.0,0.0,55,0.00,,---,0.00,0.00,VWS V14.01,2013-07-31 12:37:00,
2013-07-31 05:42:00,61.3,45.0,29.97,WNW,292,0.0,0.0,55,0.00,,---,0.00,0.00,VWS V14.01,2013-07-31 12:42:00,
2013-07-31 05:47:00,61.2,44.4,29.97,WNW,292,0.0,0.0,54,0.00,,---,0.00,0.00,VWS V14.01,2013-07-31 12:47:00,
2013-07-31 05:52:00,61.2,44.9,29.97,NNW,338,0.0,0.0,55,0.00,,---,0.00,0.00,VWS V14.01,2013-07-31 12:52:00,
2013-07-31 05:57:00,61.0,43.3,29.97,NW,324,0.0,0.0,52,0.00,,---,0.00,0.00,VWS V14.01,2013-07-31 12:57:00,
2013-07-31 06:02:00,60.9,43.7,29.97,NW,324,0.0,0.0,53,0.00,,---,0.00,0.00,VWS V14.01,2013-07-31 13:02:00,
2013-07-31 06:07:00,60.8,43.1,29.97,NW,324,0.0,0.0,52,0.00,,---,0.00,0.00,VWS V14.01,2013-07-31 13:07:00,
2013-07-31 06:12:00,60.8,43.1,29.97,NW,324,0.0,0.0,52,0.00,,---,0.00,0.00,VWS V14.01,2013-07-31 13:12:00,
2013-07-31 06:17:00,60.8,43.1,29.97,NW,324,0.0,0.0,52,0.00,,---,0.00,0.00,VWS V14.01,2013-07-31 13:17:00,
2013-07-31 06:22:00,60.8,43.6,29.97,NNE,22,0.0,1.0,53,0.00,,---,0.00,0.00,VWS V14.01,2013-07-31 13:22:00,
2013-07-31 06:27:00,60.8,43.6,29.97,NW,325,1.0,1.0,53,0.00,,---,0.00,0.00,VWS V14.01,2013-07-31 13:27:00,
2013-07-31 06:32:00,60.8,43.1,29.97,NW,315,0.0,1.0,52,0.00,,---,0.00,0.00,VWS V14.01,2013-07-31 13:32:00,
2013-07-31 06:37:00,60.8,44.1,29.97,NW,322,2.0,3.0,54,0.00,,---,0.00,0.00,VWS V14.01,2013-07-31 13:37:00,
2013-07-31 06:42:00,60.9,43.7,29.97,WNW,303,0.0,3.0,53,0.00,,---,0.00,0.00,VWS V14.01,2013-07-31 13:42:00,
2013-07-31 06:47:00,61.0,44.7,29.97,NW,304,0.0,3.0,55,0.00,,---,0.00,0.00,VWS V14.01,2013-07-31 13:47:00,
2013-07-31 06:52:00,61.3,43.5,29.97,NW,313,2.0,4.0,52,0.00,,---,0.00,0.00,VWS V14.01,2013-07-31 13:52:00,
2013-07-31 06:57:00,61.6,43.8,29.97,WNW,303,0.0,4.0,52,0.00,,---,0.00,0.00,VWS V14.01,2013-07-31 13:57:00,
2013-07-31 07:02:00,61.9,45.1,29.96,WNW,303,0.0,0.0,54,0.00,,---,0.00,0.00,VWS V14.01,2013-07-31 14:02:00,
2013-07-31 07:07:00,62.0,44.7,29.96,WNW,303,0.0,0.0,53,0.00,,---,0.00,0.00,VWS V14.01,2013-07-31 14:07:00,
2013-07-31 07:12:00,62.2,44.9,29.96,NW,304,0.0,0.0,53,0.00,,---,0.00,0.00,VWS V14.01,2013-07-31 14:12:00,
2013-07-31 07:17:00,62.2,44.9,29.97,NNE,22,0.0,0.0,53,0.00,,---,0.00,0.00,VWS V14.01,2013-07-31 14:17:00,
2013-07-31 07:22:00,62.2,44.4,29.96,North,9,1.0,2.0,52,0.00,,---,0.00,0.00,VWS V14.01,2013-07-31 14:22:00,
2013-07-31 07:27:00,62.2,43.9,29.96,NE,34,2.0,3.0,51,0.00,,---,0.00,0.00,VWS V14.01,2013-07-31 14:27:00,
2013-07-31 07:32:00,62.3,42.9,29.96,NNW,348,0.0,4.0,49,0.00,,---,0.00,0.00,VWS V14.01,2013-07-31 14:32:00,
2013-07-31 07:37:00,62.4,43.0,29.96,NNW,327,0.0,4.0,49,0.00,,---,0.00,0.00,VWS V14.01,2013-07-31 14:37:00,
2013-07-31 07:42:00,62.7,43.8,29.96,NW,311,0.0,4.0,50,0.00,,---,0.00,0.00,VWS V14.01,2013-07-31 14:42:00,
2013-07-31 07:47:00,62.9,44.5,29.96,NW,311,0.0,4.0,51,0.00,,---,0.00,0.00,VWS V14.01,2013-07-31 14:47:00,
2013-07-31 07:52:00,63.0,44.1,29.96,NW,315,0.0,4.0,50,0.00,,---,0.00,0.00,VWS V14.01,2013-07-31 14:52:00,
2013-07-31 07:57:00,63.1,44.7,29.96,NNW,348,0.0,4.0,51,0.00,,---,0.00,0.00,VWS V14.01,2013-07-31 14:57:00,
2013-07-31 08:02:00,63.3,45.4,29.96,NNW,348,0.0,0.0,52,0.00,,---,0.00,0.00,VWS V14.01,2013-07-31 15:02:00,
2013-07-31 08:07:00,63.5,45.6,29.95,NNW,348,0.0,0.0,52,0.00,,---,0.00,0.00,VWS V14.01,2013-07-31 15:07:00,
2013-07-31 08:12:00,63.8,45.9,29.95,NNW,348,0.0,0.0,52,0.00,,---,0.00,0.00,VWS V14.01,2013-07-31 15:12:00,
2013-07-31 08:17:00,64.0,45.0,29.95,NNW,348,0.0,0.0,50,0.00,,---,0.00,0.00,VWS V14.01,2013-07-31 15:17:00,
2013-07-31 08:22:00,64.4,44.8,29.95,NNW,348,0.0,0.0,49,0.00,,---,0.00,0.00,VWS V14.01,2013-07-31 15:22:00,
2013-07-31 08:27:00,64.9,44.2,29.96,NNW,348,0.0,0.0,47,0.00,,---,0.00,0.00,VWS V14.01,2013-07-31 15:27:00,
2013-07-31 08:32:00,65.6,43.1,29.96,SE,138,1.0,2.0,44,0.00,,---,0.00,0.00,VWS V14.01,2013-07-31 15:32:00,
2013-07-31 08:37:00,66.2,43.1,29.95,South,178,0.0,2.0,43,0.00,,---,0.00,0.00,VWS V14.01,2013-07-31 15:37:00,
2013-07-31 08:42:00,66.8,43.0,29.95,SW,232,0.0,3.0,42,0.00,,---,0.00,0.00,VWS V14.01,2013-07-31 15:42:00,
2013-07-31 08:47:00,67.4,42.9,29.95,SW,232,0.0,3.0,41,0.00,,---,0.00,0.00,VWS V14.01,2013-07-31 15:47:00,
2013-07-31 08:52:00,67.9,42.7,29.95,SW,229,0.0,3.0,40,0.00,,---,0.00,0.00,VWS V14.01,2013-07-31 15:52:00,
2013-07-31 08:57:00,68.3,43.1,29.95,South,188,3.0,3.0,40,0.00,,---,0.00,0.00,VWS V14.01,2013-07-31 15:57:00,
2013-07-31 09:02:00,68.5,43.2,29.95,SW,221,0.0,1.0,40,0.00,,---,0.00,0.00,VWS V14.01,2013-07-31 16:02:00,
2013-07-31 09:07:00,68.8,42.9,29.95,SW,229,0.0,1.0,39,0.00,,---,0.00,0.00,VWS V14.01,2013-07-31 16:07:00,
2013-07-31 09:12:00,69.4,42.7,29.95,South,186,1.0,2.0,38,0.00,,---,0.00,0.00,VWS V14.01,2013-07-31 16:12:00,
2013-07-31 09:17:00,69.9,43.2,29.95,West,270,0.0,5.0,38,0.00,,---,0.00,0.00,VWS V14.01,2013-07-31 16:17:00,
2013-07-31 09:22:00,70.2,42.0,29.95,SW,233,1.0,5.0,36,0.00,,---,0.00,0.00,VWS V14.01,2013-07-31 16:22:00,
2013-07-31 09:27:00,70.3,41.4,29.95,WSW,246,2.0,5.0,35,0.00,,---,0.00,0.00,VWS V14.01,2013-07-31 16:27:00,
2013-07-31 09:32:00,70.6,41.7,29.95,SW,219,1.0,3.0,35,0.00,,---,0.00,0.00,VWS V14.01,2013-07-31 16:32:00,
2013-07-31 09:37:00,70.8,40.3,29.94,SW,236,3.0,5.0,33,0.00,,---,0.00,0.00,VWS V14.01,2013-07-31 16:37:00,
2013-07-31 09:42:00,71.2,41.4,29.94,SW,232,0.0,5.0,34,0.00,,---,0.00,0.00,VWS V14.01,2013-07-31 16:42:00,
2013-07-31 09:47:00,71.4,42.3,29.94,SW,236,1.0,5.0,35,0.00,,---,0.00,0.00,VWS V14.01,2013-07-31 16:47:00,
2013-07-31 09:52:00,71.8,42.0,29.94,SW,236,2.0,5.0,34,0.00,,---,0.00,0.00,VWS V14.01,2013-07-31 16:52:00,
2013-07-31 09:57:00,72.3,41.6,29.94,WSW,238,0.0,5.0,33,0.00,,---,0.00,0.00,VWS V14.01,2013-07-31 16:57:00,
2013-07-31 10:02:00,72.7,42.7,29.94,SSE,168,0.0,4.0,34,0.00,,---,0.00,0.00,VWS V14.01,2013-07-31 17:02:00,
2013-07-31 10:07:00,73.1,42.3,29.94,SSE,159,0.0,5.0,33,0.00,,---,0.00,0.00,VWS V14.01,2013-07-31 17:07:00,
2013-07-31 10:12:00,73.0,42.2,29.94,SSW,198,2.0,5.0,33,0.00,,---,0.00,0.00,VWS V14.01,2013-07-31 17:12:00,
2013-07-31 10:17:00,73.2,43.2,29.94,SW,217,7.0,7.0,34,0.00,,---,0.00,0.00,VWS V14.01,2013-07-31 17:17:00,
2013-07-31 10:22:00,73.3,41.7,29.94,West,269,0.0,7.0,32,0.00,,---,0.00,0.00,VWS V14.01,2013-07-31 17:22:00,
2013-07-31 10:27:00,73.6,43.5,29.94,SSW,202,0.0,7.0,34,0.00,,---,0.00,0.00,VWS V14.01,2013-07-31 17:27:00,
2013-07-31 10:32:00,73.7,42.0,29.94,WSW,242,2.0,5.0,32,0.00,,---,0.00,0.00,VWS V14.01,2013-07-31 17:32:00,
2013-07-31 10:38:00,74.0,41.5,29.94,SW,227,2.0,6.0,31,0.00,,---,0.00,0.00,VWS V14.01,2013-07-31 17:38:00,
2013-07-31 10:43:00,74.2,42.5,29.93,SSW,206,3.0,6.0,32,0.00,,---,0.00,0.00,VWS V14.01,2013-07-31 17:43:00,
2013-07-31 10:48:00,74.8,43.0,29.94,SW,225,3.0,6.0,32,0.00,,---,0.00,0.00,VWS V14.01,2013-07-31 17:48:00,
2013-07-31 10:53:00,75.2,43.3,29.93,SSE,160,0.0,6.0,32,0.00,,---,0.00,0.00,VWS V14.01,2013-07-31 17:53:00,
2013-07-31 10:58:00,75.5,43.6,29.93,West,273,3.0,6.0,32,0.00,,---,0.00,0.00,VWS V14.01,2013-07-31 17:58:00,
2013-07-31 11:02:00,75.8,43.9,29.93,South,178,2.0,5.0,32,0.00,,---,0.00,0.00,VWS V14.01,2013-07-31 18:02:00,
2013-07-31 11:07:00,76.0,44.0,29.93,West,277,0.0,5.0,32,0.00,,---,0.00,0.00,VWS V14.01,2013-07-31 18:07:00,
2013-07-31 11:12:00,76.2,44.2,29.93,SSE,166,1.0,5.0,32,0.00,,---,0.00,0.00,VWS V14.01,2013-07-31 18:12:00,
2013-07-31 11:17:00,76.8,44.7,29.92,WSW,247,1.0,5.0,32,0.00,,---,0.00,0.00,VWS V14.01,2013-07-31 18:17:00,
2013-07-31 11:22:00,77.5,44.5,29.92,South,181,0.0,7.0,31,0.00,,---,0.00,0.00,VWS V14.01,2013-07-31 18:22:00,
2013-07-31 11:28:00,78.0,43.2,29.93,SW,234,4.0,7.0,29,0.00,,---,0.00,0.00,VWS V14.01,2013-07-31 18:28:00,
2013-07-31 11:33:00,78.0,41.3,29.92,SW,225,0.0,5.0,27,0.00,,---,0.00,0.00,VWS V14.01,2013-07-31 18:33:00,
2013-07-31 11:38:00,77.6,42.0,29.92,West,270,3.0,5.0,28,0.00,,---,0.00,0.00,VWS V14.01,2013-07-31 18:38:00,
2013-07-31 11:43:00,77.3,42.6,29.92,NNW,330,0.0,6.0,29,0.00,,---,0.00,0.00,VWS V14.01,2013-07-31 18:43:00,
2013-07-31 11:48:00,77.6,42.0,29.92,SSE,155,2.0,6.0,28,0.00,,---,0.00,0.00,VWS V14.01,2013-07-31 18:48:00,
2013-07-31 11:53:00,78.1,40.5,29.92,SW,231,0.0,6.0,26,0.00,,---,0.00,0.00,VWS V14.01,2013-07-31 18:53:00,
2013-07-31 11:58:00,78.3,39.6,29.92,West,266,0.0,6.0,25,0.00,,---,0.00,0.00,VWS V14.01,2013-07-31 18:58:00,
2013-07-31 12:03:00,78.6,41.9,29.91,SE,146,3.0,5.0,27,0.00,,---,0.00,0.00,VWS V14.01,2013-07-31 19:03:00,
2013-07-31 12:08:00,78.9,39.1,29.91,SSE,151,4.0,6.0,24,0.00,,---,0.00,0.00,VWS V14.01,2013-07-31 19:08:00,
2013-07-31 12:13:00,79.0,38.1,29.91,SW,233,0.0,6.0,23,0.00,,---,0.00,0.00,VWS V14.01,2013-07-31 19:13:00,
2013-07-31 12:18:00,79.1,39.2,29.91,SSW,209,0.0,6.0,24,0.00,,---,0.00,0.00,VWS V14.01,2013-07-31 19:18:00,
2013-07-31 12:23:00,79.4,39.5,29.91,South,175,5.0,6.0,24,0.00,,---,0.00,0.00,VWS V14.01,2013-07-31 19:23:00,
2013-07-31 12:27:00,79.4,39.5,29.90,SE,146,0.0,7.0,24,0.00,,---,0.00,0.00,VWS V14.01,2013-07-31 19:27:00,
2013-07-31 12:33:00,79.5,39.6,29.90,SSW,204,6.0,6.0,24,0.00,,---,0.00,0.00,VWS V14.01,2013-07-31 19:33:00,
2013-07-31 12:38:00,79.8,39.8,29.90,SW,222,2.0,6.0,24,0.00,,---,0.00,0.00,VWS V14.01,2013-07-31 19:38:00,
2013-07-31 12:42:00,79.7,39.8,29.90,SW,219,0.0,6.0,24,0.00,,---,0.00,0.00,VWS V14.01,2013-07-31 19:42:00,
2013-07-31 12:47:00,79.6,40.7,29.90,SW,232,0.0,6.0,25,0.00,,---,0.00,0.00,VWS V14.01,2013-07-31 19:47:00,
2013-07-31 12:52:00,79.7,40.8,29.90,SSW,194,2.0,6.0,25,0.00,,---,0.00,0.00,VWS V14.01,2013-07-31 19:52:00,
2013-07-31 12:57:00,79.8,39.8,29.90,WSW,246,3.0,7.0,24,0.00,,---,0.00,0.00,VWS V14.01,2013-07-31 19:57:00,
2013-07-31 13:02:00,79.9,38.8,29.90,SSW,211,1.0,6.0,23,0.00,,---,0.00,0.00,VWS V14.01,2013-07-31 20:02:00,
2013-07-31 13:07:00,79.8,40.9,29.90,SE,143,5.0,6.0,25,0.00,,---,0.00,0.00,VWS V14.01,2013-07-31 20:07:00,
2013-07-31 13:12:00,79.8,40.9,29.90,South,178,4.0,8.0,25,0.00,,---,0.00,0.00,VWS V14.01,2013-07-31 20:12:00,
2013-07-31 13:17:00,79.6,40.7,29.89,South,182,2.0,8.0,25,0.00,,---,0.00,0.00,VWS V14.01,2013-07-31 20:17:00,
2013-07-31 13:22:00,79.3,40.5,29.89,SSE,161,2.0,8.0,25,0.00,,---,0.00,0.00,VWS V14.01,2013-07-31 20:22:00,
2013-07-31 13:28:00,79.1,41.3,29.90,SSW,204,1.0,8.0,26,0.00,,---,0.00,0.00,VWS V14.01,2013-07-31 20:28:00,
2013-07-31 13:32:00,79.1,40.3,29.90,SSE,163,2.0,7.0,25,0.00,,---,0.00,0.00,VWS V14.01,2013-07-31 20:32:00,
2013-07-31 13:37:00,78.9,40.1,29.90,SW,232,2.0,8.0,25,0.00,,---,0.00,0.00,VWS V14.01,2013-07-31 20:37:00,
2013-07-31 13:43:00,78.5,39.8,29.90,WSW,240,1.0,8.0,25,0.00,,---,0.00,0.00,VWS V14.01,2013-07-31 20:43:00,
2013-07-31 13:47:00,78.5,39.8,29.90,West,264,1.0,8.0,25,0.00,,---,0.00,0.00,VWS V14.01,2013-07-31 20:47:00,
2013-07-31 13:52:00,78.9,40.1,29.90,WSW,254,4.0,8.0,25,0.00,,---,0.00,0.00,VWS V14.01,2013-07-31 20:52:00,
2013-07-31 13:57:00,79.5,40.6,29.90,West,271,6.0,12.0,25,0.00,,---,0.00,0.00,VWS V14.01,2013-07-31 20:57:00,
2013-07-31 14:02:00,79.9,38.8,29.89,WNW,293,1.0,12.0,23,0.00,,---,0.00,0.00,VWS V14.01,2013-07-31 21:02:00,
2013-07-31 14:07:00,80.4,39.2,29.89,WSW,250,8.0,12.0,23,0.00,,---,0.00,0.00,VWS V14.01,2013-07-31 21:07:00,
2013-07-31 14:12:00,80.8,38.5,29.89,NNE,27,1.0,12.0,22,0.00,,---,0.00,0.00,VWS V14.01,2013-07-31 21:12:00,
2013-07-31 14:17:00,80.7,37.2,29.89,West,269,9.0,12.0,21,0.00,,---,0.00,0.00,VWS V14.01,2013-07-31 21:17:00,
2013-07-31 14:22:00,80.7,38.4,29.89,WSW,254,6.0,12.0,22,0.00,,---,0.00,0.00,VWS V14.01,2013-07-31 21:22:00,
2013-07-31 14:27:00,81.0,37.4,29.88,West,274,6.0,12.0,21,0.00,,---,0.00,0.00,VWS V14.01,2013-07-31 21:27:00,
2013-07-31 14:32:00,81.4,38.9,29.88,WSW,244,2.0,5.0,22,0.00,,---,0.00,0.00,VWS V14.01,2013-07-31 21:32:00,
2013-07-31 14:37:00,81.8,38.1,29.88,SW,221,0.0,7.0,21,0.00,,---,0.00,0.00,VWS V14.01,2013-07-31 21:37:00,
2013-07-31 14:42:00,82.4,37.3,29.87,SSE,158,5.0,7.0,20,0.00,,---,0.00,0.00,VWS V14.01,2013-07-31 21:42:00,
2013-07-31 14:47:00,82.8,36.4,29.87,SW,229,3.0,7.0,19,0.00,,---,0.00,0.00,VWS V14.01,2013-07-31 21:47:00,
2013-07-31 14:52:00,83.1,35.2,29.86,West,271,4.0,14.0,18,0.00,,---,0.00,0.00,VWS V14.01,2013-07-31 21:52:00,
2013-07-31 14:57:00,82.9,36.5,29.86,WNW,299,2.0,14.0,19,0.00,,---,0.00,0.00,VWS V14.01,2013-07-31 21:57:00,
2013-07-31 15:02:00,83.4,35.5,29.85,SW,225,6.0,8.0,18,0.00,,---,0.00,0.00,VWS V14.01,2013-07-31 22:02:00,
2013-07-31 15:07:00,83.4,35.5,29.86,SW,219,11.0,11.0,18,0.00,,---,0.00,0.00,VWS V14.01,2013-07-31 22:07:00,
2013-07-31 15:12:00,83.0,35.2,29.85,SSW,198,2.0,11.0,18,0.00,,---,0.00,0.00,VWS V14.01,2013-07-31 22:12:00,
2013-07-31 15:17:00,82.8,33.6,29.85,SW,227,1.0,11.0,17,0.00,,---,0.00,0.00,VWS V14.01,2013-07-31 22:17:00,
2013-07-31 15:22:00,82.1,35.8,29.84,South,178,4.0,11.0,19,0.00,,---,0.00,0.00,VWS V14.01,2013-07-31 22:22:00,
2013-07-31 15:27:00,82.0,35.7,29.85,WSW,240,0.0,11.0,19,0.00,,---,0.00,0.00,VWS V14.01,2013-07-31 22:27:00,
2013-07-31 15:32:00,81.6,34.0,29.85,SSW,201,4.0,6.0,18,0.00,,---,0.00,0.00,VWS V14.01,2013-07-31 22:32:00,
2013-07-31 15:37:00,80.9,34.8,29.85,SW,225,7.0,7.0,19,0.00,,---,0.00,0.00,VWS V14.01,2013-07-31 22:37:00,
2013-07-31 15:42:00,80.2,34.2,29.85,SW,227,4.0,7.0,19,0.00,,---,0.00,0.00,VWS V14.01,2013-07-31 22:42:00,
2013-07-31 15:47:00,79.7,33.8,29.86,SW,228,0.0,7.0,19,0.00,,---,0.00,0.00,VWS V14.01,2013-07-31 22:47:00,
2013-07-31 15:53:00,79.2,34.7,29.86,West,259,2.0,7.0,20,0.00,,---,0.00,0.00,VWS V14.01,2013-07-31 22:53:00,
2013-07-31 15:58:00,78.7,34.3,29.87,South,171,0.0,7.0,20,0.00,,---,0.00,0.00,VWS V14.01,2013-07-31 22:58:00,
2013-07-31 16:03:00,78.5,34.1,29.88,West,259,0.0,1.0,20,0.00,,---,0.00,0.00,VWS V14.01,2013-07-31 23:03:00,
2013-07-31 16:08:00,78.3,35.2,29.89,West,273,0.0,4.0,21,0.00,,---,0.00,0.00,VWS V14.01,2013-07-31 23:08:00,
2013-07-31 16:12:00,78.1,42.4,29.91,NNE,20,6.0,8.0,28,0.00,,---,0.00,0.00,VWS V14.01,2013-07-31 23:12:00,
2013-07-31 16:17:00,75.9,50.5,29.93,NE,49,6.0,13.0,41,0.01,,---,0.01,0.00,VWS V14.01,2013-07-31 23:17:00,
2013-07-31 16:22:00,71.2,48.8,29.94,NE,51,10.0,26.0,45,0.01,,---,0.01,0.00,VWS V14.01,2013-07-31 23:22:00,
2013-07-31 16:27:00,69.5,49.5,29.93,NNW,346,2.0,26.0,49,0.01,,---,0.01,0.00,VWS V14.01,2013-07-31 23:27:00,
2013-07-31 16:32:00,68.8,47.8,29.94,ENE,66,4.0,9.0,47,0.01,,---,0.01,0.00,VWS V14.01,2013-07-31 23:32:00,
2013-07-31 16:37:00,68.8,47.8,29.94,SE,146,5.0,10.0,47,0.01,,---,0.01,0.00,VWS V14.01,2013-07-31 23:37:00,
2013-07-31 16:42:00,68.6,48.7,29.94,SE,145,3.0,10.0,49,0.02,,---,0.02,0.00,VWS V14.01,2013-07-31 23:42:00,
2013-07-31 16:47:00,67.9,53.5,29.94,ENE,61,0.0,10.0,60,0.02,,---,0.02,0.00,VWS V14.01,2013-07-31 23:47:00,
2013-07-31 16:52:00,67.1,50.9,29.94,SSE,149,5.0,10.0,56,0.03,,---,0.03,0.00,VWS V14.01,2013-07-31 23:52:00,
2013-07-31 16:53:00,67.1,50.9,29.94,SSE,149,5.0,10.0,56,0.03,,---,0.03,0.00,VWS V14.01,2013-07-31 23:53:00,
2013-07-31 16:58:00,66.6,49.0,29.94,SSE,153,3.0,10.0,53,0.03,,---,0.03,0.00,VWS V14.01,2013-07-31 23:58:00,
2013-07-31 17:03:00,66.8,49.1,29.93,SSE,147,1.0,5.0,53,0.03,,---,0.03,0.00,VWS V14.01,2013-08-01 00:03:00,
2013-07-31 17:08:00,67.4,49.2,29.93,SSE,159,4.0,10.0,52,0.03,,---,0.03,0.00,VWS V14.01,2013-08-01 00:08:00,
2013-07-31 17:13:00,67.8,48.5,29.93,SSE,165,3.0,10.0,50,0.03,,---,0.03,0.00,VWS V14.01,2013-08-01 00:13:00,
2013-07-31 17:18:00,67.9,50.2,29.93,SSE,150,2.0,10.0,53,0.03,,---,0.03,0.00,VWS V14.01,2013-08-01 00:18:00,
2013-07-31 17:23:00,67.9,49.7,29.93,South,186,4.0,10.0,52,0.03,,---,0.03,0.00,VWS V14.01,2013-08-01 00:23:00,
2013-07-31 17:28:00,68.0,50.8,29.93,SSW,194,2.0,10.0,54,0.03,,---,0.03,0.00,VWS V14.01,2013-08-01 00:28:00,
2013-07-31 17:32:00,68.3,50.0,29.93,SSE,168,4.0,6.0,52,0.02,,---,0.03,0.00,VWS V14.01,2013-08-01 00:32:00,
2013-07-31 17:38:00,69.1,49.7,29.91,SSW,207,2.0,12.0,50,0.02,,---,0.03,0.00,VWS V14.01,2013-08-01 00:38:00,
2013-07-31 17:43:00,69.8,46.9,29.91,SSE,150,7.0,12.0,44,0.02,,---,0.03,0.00,VWS V14.01,2013-08-01 00:43:00,
2013-07-31 17:48:00,69.8,45.7,29.91,SW,225,2.0,12.0,42,0.02,,---,0.03,0.00,VWS V14.01,2013-08-01 00:48:00,
2013-07-31 17:53:00,69.6,46.8,29.92,South,184,4.0,12.0,44,0.02,,---,0.03,0.00,VWS V14.01,2013-08-01 00:53:00,
2013-07-31 17:58:00,69.2,48.1,29.93,SSW,201,0.0,12.0,47,0.02,,---,0.03,0.00,VWS V14.01,2013-08-01 00:58:00,
2013-07-31 18:03:00,68.6,49.8,29.93,SSW,194,0.0,1.0,51,0.00,,---,0.03,0.00,VWS V14.01,2013-08-01 01:03:00,
2013-07-31 18:08:00,68.1,47.7,29.92,SSW,192,0.0,5.0,48,0.00,,---,0.03,0.00,VWS V14.01,2013-08-01 01:08:00,
2013-07-31 18:13:00,67.8,48.0,29.92,SW,227,0.0,5.0,49,0.00,,---,0.03,0.00,VWS V14.01,2013-08-01 01:13:00,
2013-07-31 18:18:00,67.7,47.9,29.93,SW,228,0.0,5.0,49,0.00,,---,0.03,0.00,VWS V14.01,2013-08-01 01:18:00,
2013-07-31 18:22:00,67.7,48.9,29.93,WSW,247,0.0,5.0,51,0.00,,---,0.03,0.00,VWS V14.01,2013-08-01 01:22:00,
2013-07-31 18:27:00,67.6,49.4,29.93,WSW,247,0.0,5.0,52,0.00,,---,0.03,0.00,VWS V14.01,2013-08-01 01:27:00,
2013-07-31 18:32:00,67.6,49.9,29.93,WSW,242,0.0,1.0,53,0.00,,---,0.03,0.00,VWS V14.01,2013-08-01 01:32:00,
2013-07-31 18:38:00,67.5,48.2,29.94,WSW,242,0.0,1.0,50,0.00,,---,0.03,0.00,VWS V14.01,2013-08-01 01:38:00,
2013-07-31 18:42:00,67.4,48.1,29.94,WSW,242,0.0,1.0,50,0.00,,---,0.03,0.00,VWS V14.01,2013-08-01 01:42:00,
2013-07-31 18:47:00,67.4,50.2,29.95,WSW,242,0.0,1.0,54,0.00,,---,0.03,0.00,VWS V14.01,2013-08-01 01:47:00,
2013-07-31 18:52:00,67.2,48.0,29.95,WSW,242,0.0,1.0,50,0.00,,---,0.03,0.00,VWS V14.01,2013-08-01 01:52:00,
2013-07-31 18:57:00,67.0,48.3,29.95,WSW,241,0.0,1.0,51,0.00,,---,0.03,0.00,VWS V14.01,2013-08-01 01:57:00,
2013-07-31 19:02:00,66.7,48.5,29.93,WSW,238,5.0,5.0,52,0.00,,---,0.03,0.00,VWS V14.01,2013-08-01 02:02:00,
2013-07-31 19:07:00,66.1,53.2,29.93,SW,234,0.0,5.0,63,0.00,,---,0.03,0.00,VWS V14.01,2013-08-01 02:07:00,
2013-07-31 19:12:00,65.4,52.5,29.93,West,273,0.0,5.0,63,0.01,,---,0.04,0.00,VWS V14.01,2013-08-01 02:12:00,
2013-07-31 19:17:00,64.6,52.2,29.93,NNW,333,0.0,5.0,64,0.01,,---,0.04,0.00,VWS V14.01,2013-08-01 02:17:00,
2013-07-31 19:22:00,64.3,52.3,29.92,ENE,69,4.0,5.0,65,0.01,,---,0.04,0.00,VWS V14.01,2013-08-01 02:22:00,
2013-07-31 19:28:00,64.7,50.5,29.91,SE,146,2.0,5.0,60,0.01,,---,0.04,0.00,VWS V14.01,2013-08-01 02:28:00,
2013-07-31 19:33:00,65.6,49.5,29.92,SSE,156,3.0,4.0,56,0.01,,---,0.04,0.00,VWS V14.01,2013-08-01 02:33:00,
2013-07-31 19:37:00,66.0,47.9,29.91,South,178,2.0,4.0,52,0.01,,---,0.04,0.00,VWS V14.01,2013-08-01 02:37:00,
2013-07-31 19:42:00,66.1,49.5,29.92,NE,42,0.0,4.0,55,0.01,,---,0.04,0.00,VWS V14.01,2013-08-01 02:42:00,
2013-07-31 19:48:00,66.1,50.0,29.92,NW,315,0.0,4.0,56,0.01,,---,0.04,0.00,VWS V14.01,2013-08-01 02:48:00,
2013-07-31 19:53:00,66.0,50.3,29.92,SSE,159,0.0,4.0,57,0.01,,---,0.04,0.00,VWS V14.01,2013-08-01 02:53:00,
2013-07-31 19:58:00,65.9,49.3,29.92,South,184,1.0,4.0,55,0.01,,---,0.04,0.00,VWS V14.01,2013-08-01 02:58:00,
2013-07-31 20:03:00,65.6,48.0,29.91,SW,223,0.0,2.0,53,0.01,,---,0.04,0.00,VWS V14.01,2013-08-01 03:03:00,
2013-07-31 20:08:00,65.4,48.3,29.90,South,191,1.0,4.0,54,0.01,,---,0.04,0.00,VWS V14.01,2013-08-01 03:08:00,
2013-07-31 20:13:00,65.3,49.2,29.90,SSE,163,1.0,4.0,56,0.01,,---,0.04,0.00,VWS V14.01,2013-08-01 03:13:00,
2013-07-31 20:18:00,65.1,47.6,29.90,SSW,196,0.0,4.0,53,0.01,,---,0.04,0.00,VWS V14.01,2013-08-01 03:18:00,
2013-07-31 20:23:00,65.0,49.9,29.91,SSW,192,0.0,4.0,58,0.01,,---,0.04,0.00,VWS V14.01,2013-08-01 03:23:00,
2013-07-31 20:28:00,64.8,49.2,29.92,West,281,1.0,4.0,57,0.01,,---,0.04,0.00,VWS V14.01,2013-08-01 03:28:00,
2013-07-31 20:33:00,64.6,50.4,29.92,West,281,0.0,0.0,60,0.00,,---,0.04,0.00,VWS V14.01,2013-08-01 03:33:00,
2013-07-31 20:38:00,64.4,50.2,29.92,NW,314,1.0,1.0,60,0.00,,---,0.04,0.00,VWS V14.01,2013-08-01 03:38:00,
2013-07-31 20:43:00,64.3,50.1,29.93,NW,314,0.0,1.0,60,0.00,,---,0.04,0.00,VWS V14.01,2013-08-01 03:43:00,
2013-07-31 20:47:00,64.1,50.8,29.93,NW,314,0.0,1.0,62,0.00,,---,0.04,0.00,VWS V14.01,2013-08-01 03:47:00,
2013-07-31 20:52:00,63.9,48.4,29.93,NW,314,0.0,1.0,57,0.00,,---,0.04,0.00,VWS V14.01,2013-08-01 03:52:00,
2013-07-31 20:57:00,63.8,50.1,29.92,NW,314,0.0,1.0,61,0.00,,---,0.04,0.00,VWS V14.01,2013-08-01 03:57:00,
2013-07-31 21:01:00,63.6,50.4,29.93,NE,42,2.0,2.0,62,0.00,,---,0.04,0.00,VWS V14.01,2013-08-01 04:01:00,
2013-07-31 21:02:00,63.6,50.8,29.93,NE,44,0.0,2.0,63,0.00,,---,0.04,0.00,VWS V14.01,2013-08-01 04:02:00,
2013-07-31 21:07:00,63.4,50.2,29.93,NNW,332,0.0,3.0,62,0.00,,---,0.04,0.00,VWS V14.01,2013-08-01 04:07:00,
2013-07-31 21:12:00,63.3,48.3,29.94,NNE,22,2.0,3.0,58,0.00,,---,0.04,0.00,VWS V14.01,2013-08-01 04:12:00,
2013-07-31 21:17:00,63.4,47.9,29.93,NNW,344,1.0,4.0,57,0.00,,---,0.04,0.00,VWS V14.01,2013-08-01 04:17:00,
2013-07-31 21:22:00,63.5,49.4,29.92,WNW,302,2.0,4.0,60,0.00,,---,0.04,0.00,VWS V14.01,2013-08-01 04:22:00,
2013-07-31 21:27:00,63.4,49.3,29.92,West,274,0.0,4.0,60,0.00,,---,0.04,0.00,VWS V14.01,2013-08-01 04:27:00,
2013-07-31 21:32:00,63.4,48.8,29.91,SSW,210,0.0,1.0,59,0.00,,---,0.04,0.00,VWS V14.01,2013-08-01 04:32:00,
2013-07-31 21:37:00,63.2,47.3,29.91,WSW,238,3.0,3.0,56,0.00,,---,0.04,0.00,VWS V14.01,2013-08-01 04:37:00,
2013-07-31 21:42:00,63.4,46.5,29.90,SW,229,1.0,3.0,54,0.00,,---,0.04,0.00,VWS V14.01,2013-08-01 04:42:00,
2013-07-31 21:47:00,63.8,46.8,29.90,SW,224,0.0,4.0,54,0.00,,---,0.04,0.00,VWS V14.01,2013-08-01 04:47:00,
2013-07-31 21:52:00,64.0,47.0,29.91,SW,232,2.0,4.0,54,0.00,,---,0.04,0.00,VWS V14.01,2013-08-01 04:52:00,
2013-07-31 21:57:00,64.0,48.0,29.91,SW,234,0.0,4.0,56,0.00,,---,0.04,0.00,VWS V14.01,2013-08-01 04:57:00,
2013-07-31 22:02:00,63.9,48.4,29.91,West,260,2.0,3.0,57,0.00,,---,0.04,0.00,VWS V14.01,2013-08-01 05:02:00,
2013-07-31 22:07:00,63.6,50.4,29.92,West,281,0.0,3.0,62,0.00,,---,0.04,0.00,VWS V14.01,2013-08-01 05:07:00,
2013-07-31 22:12:00,63.1,49.5,29.91,WSW,255,1.0,3.0,61,0.00,,---,0.04,0.00,VWS V14.01,2013-08-01 05:12:00,
2013-07-31 22:17:00,62.7,50.4,29.91,WSW,251,0.0,3.0,64,0.00,,---,0.04,0.00,VWS V14.01,2013-08-01 05:17:00,
2013-07-31 22:22:00,62.5,51.4,29.91,NE,48,2.0,3.0,67,0.00,,---,0.04,0.00,VWS V14.01,2013-08-01 05:22:00,
2013-07-31 22:27:00,62.2,51.1,29.90,NW,319,0.0,3.0,67,0.00,,---,0.04,0.00,VWS V14.01,2013-08-01 05:27:00,
2013-07-31 22:32:00,61.7,51.0,29.90,NW,319,1.0,2.0,68,0.00,,---,0.04,0.00,VWS V14.01,2013-08-01 05:32:00,
2013-07-31 22:37:00,61.4,51.2,29.90,NW,321,0.0,4.0,69,0.00,,---,0.04,0.00,VWS V14.01,2013-08-01 05:37:00,
2013-07-31 22:42:00,61.4,48.7,29.89,NNE,24,0.0,4.0,63,0.00,,---,0.04,0.00,VWS V14.01,2013-08-01 05:42:00,
2013-07-31 22:47:00,61.4,50.4,29.90,NNE,17,0.0,4.0,67,0.00,,---,0.04,0.00,VWS V14.01,2013-08-01 05:47:00,
2013-07-31 22:52:00,61.5,49.6,29.91,NNE,31,0.0,4.0,65,0.00,,---,0.04,0.00,VWS V14.01,2013-08-01 05:52:00,
2013-07-31 22:57:00,61.5,49.6,29.91,NNE,16,0.0,4.0,65,0.00,,---,0.04,0.00,VWS V14.01,2013-08-01 05:57:00,
2013-07-31 23:02:00,61.6,49.3,29.90,NW,320,3.0,4.0,64,0.00,,---,0.04,0.00,VWS V14.01,2013-08-01 06:02:00,
2013-07-31 23:07:00,61.5,48.8,29.90,North,355,0.0,5.0,63,0.00,,---,0.04,0.00,VWS V14.01,2013-08-01 06:07:00,
2013-07-31 23:12:00,61.5,48.8,29.90,NNE,16,0.0,5.0,63,0.00,,---,0.04,0.00,VWS V14.01,2013-08-01 06:12:00,
2013-07-31 23:17:00,61.4,49.5,29.90,NNE,18,0.0,5.0,65,0.00,,---,0.04,0.00,VWS V14.01,2013-08-01 06:17:00,
2013-07-31 23:22:00,61.3,49.9,29.91,NNE,30,0.0,5.0,66,0.00,,---,0.04,0.00,VWS V14.01,2013-08-01 06:22:00,
2013-07-31 23:27:00,61.1,48.8,29.91,North,360,1.0,5.0,64,0.00,,---,0.04,0.00,VWS V14.01,2013-08-01 06:27:00,
2013-07-31 23:32:00,61.0,48.3,29.91,North,5,1.0,3.0,63,0.00,,---,0.04,0.00,VWS V14.01,2013-08-01 06:32:00,
2013-07-31 23:37:00,61.0,48.3,29.91,NNE,32,3.0,6.0,63,0.00,,---,0.04,0.00,VWS V14.01,2013-08-01 06:37:00,
2013-07-31 23:42:00,61.1,47.6,29.91,NNE,15,4.0,6.0,61,0.00,,---,0.04,0.00,VWS V14.01,2013-08-01 06:42:00,
2013-07-31 23:47:00,61.2,47.7,29.91,NNE,13,3.0,6.0,61,0.00,,---,0.04,0.00,VWS V14.01,2013-08-01 06:47:00,
2013-07-31 23:52:00,61.3,46.9,29.92,ENE,63,4.0,6.0,59,0.00,,---,0.04,0.00,VWS V14.01,2013-08-01 06:52:00,
2013-07-31 23:57:00,61.5,47.5,29.92,North,9,0.0,6.0,60,0.00,,---,0.04,0.00,VWS V14.01,2013-08-01 06:57:00,